createdAt,value
2018-04-30T00:02:04.958Z,99179.55
2018-04-30T00:04:36.782Z,99173.75
2018-04-30T00:07:07.507Z,99173.36
2018-04-30T00:09:38.298Z,99170.97
2018-04-30T00:12:08.769Z,99166.59
2018-04-30T00:14:39.877Z,99168.39
2018-04-30T00:17:10.585Z,99153.72
2018-04-30T00:19:41.316Z,99153.27
2018-04-30T00:22:11.875Z,99150.53
2018-04-30T00:24:42.635Z,99149.24
2018-04-30T00:27:13.383Z,99146.08
2018-04-30T00:29:44.354Z,99141.52
2018-04-30T00:32:15.218Z,99142.78
2018-04-30T00:34:46.296Z,99141.51
2018-04-30T00:37:17.162Z,99135.01
2018-04-30T00:39:48.170Z,99134.03
2018-04-30T00:42:19.166Z,99119.77
2018-04-30T00:44:50.266Z,99119.60
2018-04-30T00:47:20.759Z,99108.03
2018-04-30T00:49:51.530Z,99102.69
2018-04-30T00:52:22.278Z,99089.69
2018-04-30T00:55:01.867Z,99089.47
2018-04-30T00:57:31.110Z,99092.03
2018-04-30T01:00:00.542Z,99085.95
2018-04-30T01:02:29.601Z,99072.83
2018-04-30T01:04:58.549Z,99073.08
2018-04-30T01:07:27.546Z,99065.43
2018-04-30T01:09:58.310Z,99063.86
2018-04-30T01:12:29.197Z,99071.82
2018-04-30T01:15:00.820Z,99059.54
2018-04-30T01:17:31.510Z,99063.66
2018-04-30T01:20:02.286Z,99056.31
2018-04-30T01:22:33.250Z,99057.88
2018-04-30T01:25:04.339Z,99042.70
2018-04-30T01:27:35.204Z,99058.86
2018-04-30T01:30:06.030Z,99054.23
2018-04-30T01:32:37.482Z,99051.02
2018-04-30T01:35:08.335Z,99051.91
2018-04-30T01:37:39.188Z,99052.69
2018-04-30T01:40:10.554Z,99049.57
2018-04-30T01:42:40.542Z,99047.01
2018-04-30T01:45:11.619Z,99044.09
2018-04-30T01:47:42.354Z,99047.91
2018-04-30T01:50:13.238Z,99039.19
2018-04-30T01:52:44.200Z,99032.59
2018-04-30T01:55:15.358Z,99027.67
2018-04-30T01:57:46.183Z,99028.45
2018-04-30T02:00:17.743Z,99023.36
2018-04-30T02:02:48.331Z,99026.36
2018-04-30T02:05:19.260Z,99019.95
2018-04-30T02:07:50.121Z,99021.83
2018-04-30T02:10:21.259Z,99019.13
2018-04-30T02:12:52.207Z,99017.70
2018-04-30T02:15:23.491Z,99013.88
2018-04-30T02:17:54.175Z,98998.80
2018-04-30T02:20:25.367Z,99006.58
2018-04-30T02:22:56.176Z,98997.83
2018-04-30T02:25:27.195Z,99002.44
2018-04-30T02:27:58.176Z,98996.23
2018-04-30T02:30:29.190Z,98997.30
2018-04-30T02:33:00.179Z,98992.63
2018-04-30T02:35:31.278Z,98984.04
2018-04-30T02:38:02.214Z,98977.55
2018-04-30T02:40:33.281Z,98990.23
2018-04-30T02:43:04.159Z,98990.70
2018-04-30T02:45:34.860Z,98986.91
2018-04-30T02:48:05.567Z,98981.19
2018-04-30T02:50:36.347Z,98978.55
2018-04-30T02:53:07.221Z,98981.78
2018-04-30T02:55:38.183Z,98968.62
2018-04-30T02:58:08.798Z,98982.08
2018-04-30T03:00:39.599Z,98975.66
2018-04-30T03:03:10.335Z,98974.84
2018-04-30T03:05:41.299Z,98962.69
2018-04-30T03:08:12.245Z,98959.55
2018-04-30T03:10:42.921Z,98961.30
2018-04-30T03:13:13.572Z,98961.88
2018-04-30T03:15:44.980Z,98959.02
2018-04-30T03:18:15.177Z,98955.36
2018-04-30T03:20:46.590Z,98956.39
2018-04-30T03:23:17.307Z,98958.09
2018-04-30T03:25:48.323Z,98957.91
2018-04-30T03:28:18.848Z,98944.78
2018-04-30T03:30:49.782Z,98950.44
2018-04-30T03:33:20.489Z,98951.20
2018-04-30T03:35:51.004Z,98948.75
2018-04-30T03:38:21.714Z,98943.91
2018-04-30T03:40:52.490Z,98943.92
2018-04-30T03:43:23.234Z,98944.33
2018-04-30T03:45:54.255Z,98940.59
2018-04-30T03:48:25.216Z,98940.81
2018-04-30T03:50:56.267Z,98943.21
2018-04-30T03:53:27.275Z,98938.89
2018-04-30T03:55:58.237Z,98945.44
2018-04-30T03:58:29.164Z,98934.52
2018-04-30T04:04:13.458Z,98935.63
2018-04-30T04:06:53.378Z,98942.80
2018-04-30T04:09:22.666Z,98936.95
2018-04-30T04:11:51.901Z,98937.90
2018-04-30T04:14:20.922Z,98937.55
2018-04-30T04:16:50.306Z,98933.23
2018-04-30T04:19:19.269Z,98939.99
2018-04-30T04:21:48.270Z,98930.12
2018-04-30T04:24:17.244Z,98926.45
2018-04-30T04:26:46.201Z,98938.42
2018-04-30T04:29:15.547Z,98926.31
2018-04-30T04:31:44.868Z,98934.52
2018-04-30T04:34:13.815Z,98927.52
2018-04-30T04:36:42.931Z,98930.18
2018-04-30T04:39:11.870Z,98922.41
2018-04-30T04:41:40.903Z,98920.14
2018-04-30T04:44:10.550Z,98917.13
2018-04-30T04:46:39.754Z,98923.19
2018-04-30T04:49:08.806Z,98917.81
2018-04-30T04:51:37.858Z,98916.36
2018-04-30T04:54:06.791Z,98918.89
2018-04-30T04:56:35.720Z,98915.98
2018-04-30T04:59:04.802Z,98909.55
2018-04-30T05:01:34.163Z,98914.86
2018-04-30T05:04:03.139Z,98901.80
2018-04-30T05:06:32.550Z,98907.66
2018-04-30T05:09:01.535Z,98898.44
2018-04-30T05:11:30.508Z,98896.47
2018-04-30T05:13:59.539Z,98894.52
2018-04-30T05:16:28.534Z,98898.59
2018-04-30T05:18:57.986Z,98898.06
2018-04-30T05:21:29.373Z,98892.33
2018-04-30T05:23:59.687Z,98900.35
2018-04-30T05:26:30.410Z,98901.02
2018-04-30T05:29:01.282Z,98888.53
2018-04-30T05:31:33.065Z,98896.49
2018-04-30T05:34:03.806Z,98902.41
2018-04-30T05:36:33.764Z,98898.11
2018-04-30T05:39:04.330Z,98899.26
2018-04-30T05:41:36.772Z,98890.85
2018-04-30T05:44:09.812Z,98893.56
2018-04-30T05:46:38.813Z,98897.73
2018-04-30T05:49:09.514Z,98890.45
2018-04-30T05:51:40.294Z,98893.63
2018-04-30T05:54:11.209Z,98895.39
2018-04-30T05:56:42.312Z,98886.27
2018-04-30T05:59:13.203Z,98889.55
2018-04-30T06:01:44.278Z,98881.49
2018-04-30T06:04:15.174Z,98886.88
2018-04-30T06:06:46.207Z,98873.55
2018-04-30T06:09:17.261Z,98880.46
2018-04-30T06:11:48.404Z,98878.55
2018-04-30T06:14:19.156Z,98879.44
2018-04-30T06:16:50.199Z,98884.75
2018-04-30T06:19:21.677Z,98881.69
2018-04-30T06:21:52.577Z,98885.65
2018-04-30T06:24:22.514Z,98878.68
2018-04-30T06:26:53.672Z,98882.55
2018-04-30T06:29:24.535Z,98873.05
2018-04-30T06:31:56.094Z,98873.70
2018-04-30T06:34:26.705Z,98888.27
2018-04-30T06:36:57.452Z,98881.23
2018-04-30T06:39:27.922Z,98881.37
2018-04-30T06:41:59.581Z,98879.23
2018-04-30T06:44:30.322Z,98882.12
2018-04-30T06:47:01.254Z,98884.44
2018-04-30T06:49:32.233Z,98883.12
2018-04-30T06:52:03.310Z,98880.64
2018-04-30T06:54:34.185Z,98882.58
2018-04-30T06:57:05.270Z,98883.59
2018-04-30T06:59:36.200Z,98884.00
2018-04-30T07:02:07.493Z,98884.90
2018-04-30T07:04:37.535Z,98887.53
2018-04-30T07:07:08.221Z,98883.78
2018-04-30T07:09:39.362Z,98875.77
2018-04-30T07:12:10.390Z,98877.39
2018-04-30T07:14:41.203Z,98886.19
2018-04-30T07:17:12.261Z,98873.41
2018-04-30T07:19:43.550Z,98873.69
2018-04-30T07:22:14.267Z,98869.70
2018-04-30T07:24:45.228Z,98871.92
2018-04-30T07:27:16.217Z,98866.53
2018-04-30T07:29:47.202Z,98858.60
2018-04-30T07:32:18.573Z,98863.63
2018-04-30T07:34:49.302Z,98855.26
2018-04-30T07:37:20.294Z,98854.34
2018-04-30T07:39:51.179Z,98853.14
2018-04-30T07:42:22.581Z,98842.47
2018-04-30T07:44:53.708Z,98847.78
2018-04-30T07:47:24.841Z,98842.64
2018-04-30T07:49:55.570Z,98839.92
2018-04-30T07:52:26.296Z,98837.91
2018-04-30T07:54:56.811Z,98844.11
2018-04-30T07:57:27.574Z,98831.91
2018-04-30T07:59:58.294Z,98835.29
2018-04-30T08:02:29.585Z,98836.80
2018-04-30T08:05:00.265Z,98830.83
2018-04-30T08:07:31.286Z,98825.91
2018-04-30T08:10:02.163Z,98826.05
2018-04-30T08:12:33.549Z,98822.33
2018-04-30T08:15:04.107Z,98820.40
2018-04-30T08:17:34.796Z,98818.86
2018-04-30T08:20:05.555Z,98825.38
2018-04-30T08:22:36.686Z,98825.63
2018-04-30T08:25:07.383Z,98830.14
2018-04-30T08:27:38.296Z,98818.44
2018-04-30T08:30:09.206Z,98829.28
2018-04-30T08:32:40.003Z,98822.59
2018-04-30T08:35:10.514Z,98815.66
2018-04-30T08:37:41.303Z,98820.98
2018-04-30T08:40:12.226Z,98814.41
2018-04-30T08:42:43.240Z,98808.30
2018-04-30T08:45:14.261Z,98806.14
2018-04-30T08:47:45.200Z,98803.95
2018-04-30T08:50:15.518Z,98797.50
2018-04-30T08:52:46.315Z,98801.16
2018-04-30T08:55:16.867Z,98793.23
2018-04-30T08:57:47.610Z,98806.59
2018-04-30T09:00:18.645Z,98805.97
2018-04-30T09:02:49.540Z,98799.55
2018-04-30T09:05:20.330Z,98794.03
2018-04-30T09:07:51.213Z,98797.95
2018-04-30T09:10:21.782Z,98799.20
2018-04-30T09:12:52.541Z,98804.99
2018-04-30T09:15:23.672Z,98800.11
2018-04-30T09:17:54.023Z,98800.05
2018-04-30T09:20:24.731Z,98795.72
2018-04-30T09:22:55.538Z,98795.91
2018-04-30T09:25:25.506Z,98798.50
2018-04-30T09:27:56.280Z,98791.11
2018-04-30T09:30:26.765Z,98799.88
2018-04-30T09:32:57.522Z,98789.02
2018-04-30T09:35:28.285Z,98790.86
2018-04-30T09:37:59.314Z,98793.64
2018-04-30T09:40:30.244Z,98789.45
2018-04-30T09:43:01.231Z,98808.43
2018-04-30T09:45:32.793Z,98797.28
2018-04-30T09:48:03.584Z,98798.88
2018-04-30T09:50:34.223Z,98810.64
2018-04-30T09:53:05.323Z,98810.11
2018-04-30T09:55:36.177Z,98809.53
2018-04-30T09:58:07.219Z,98802.68
2018-04-30T10:00:38.166Z,98797.17
2018-04-30T10:03:09.313Z,98798.09
2018-04-30T10:05:40.155Z,98788.30
2018-04-30T10:08:11.466Z,98781.52
2018-04-30T10:10:41.535Z,98786.17
2018-04-30T10:13:12.294Z,98782.20
2018-04-30T10:15:43.502Z,98777.55
2018-04-30T10:18:14.305Z,98777.06
2018-04-30T10:20:44.971Z,98772.52
2018-04-30T10:23:15.601Z,98785.62
2018-04-30T10:25:46.300Z,98782.14
2018-04-30T10:28:17.134Z,98786.11
2018-04-30T10:30:48.233Z,98780.13
2018-04-30T10:33:19.248Z,98783.75
2018-04-30T10:35:50.215Z,98799.14
2018-04-30T10:38:21.503Z,98793.59
2018-04-30T10:40:52.246Z,98789.92
2018-04-30T10:43:23.160Z,98791.19
2018-04-30T10:45:53.801Z,98786.23
2018-04-30T10:48:25.079Z,98778.53
2018-04-30T10:50:55.689Z,98776.24
2018-04-30T10:53:26.842Z,98778.55
2018-04-30T10:55:57.635Z,98769.63
2018-04-30T10:58:28.643Z,98784.62
2018-04-30T11:00:58.615Z,98787.29
2018-04-30T11:03:29.380Z,98782.13
2018-04-30T11:06:00.200Z,98781.56
2018-04-30T11:08:31.475Z,98782.17
2018-04-30T11:11:02.225Z,98790.52
2018-04-30T11:13:33.285Z,98789.22
2018-04-30T11:16:04.817Z,98798.22
2018-04-30T11:18:35.720Z,98794.31
2018-04-30T11:21:06.429Z,98799.28
2018-04-30T11:23:37.218Z,98798.94
2018-04-30T11:26:08.526Z,98789.71
2018-04-30T11:28:39.426Z,98794.61
2018-04-30T11:31:10.286Z,98795.77
2018-04-30T11:33:42.096Z,98798.70
2018-04-30T11:36:11.756Z,98793.71
2018-04-30T11:38:42.570Z,98798.32
2018-04-30T11:41:13.234Z,98799.73
2018-04-30T11:43:44.288Z,98788.52
2018-04-30T11:46:15.177Z,98786.48
2018-04-30T11:48:46.130Z,98799.42
2018-04-30T11:51:17.250Z,98789.23
2018-04-30T11:53:48.276Z,98789.52
2018-04-30T11:56:19.246Z,98785.34
2018-04-30T11:58:50.458Z,98788.78
2018-04-30T12:01:21.389Z,98794.33
2018-04-30T12:03:52.634Z,98798.24
2018-04-30T12:06:23.369Z,98805.53
2018-04-30T12:08:54.296Z,98801.09
2018-04-30T12:11:25.249Z,98802.71
2018-04-30T12:13:56.295Z,98796.91
2018-04-30T12:16:26.893Z,98819.91
2018-04-30T12:18:58.595Z,98802.02
2018-04-30T12:21:29.280Z,98801.79
2018-04-30T12:24:00.325Z,98798.44
2018-04-30T12:26:31.144Z,98799.97
2018-04-30T12:29:02.258Z,98790.72
2018-04-30T12:31:33.140Z,98788.71
2018-04-30T12:34:03.826Z,98790.58
2018-04-30T12:36:34.879Z,98784.91
2018-04-30T12:39:05.026Z,98788.31
2018-04-30T12:41:36.210Z,98786.84
2018-04-30T12:44:06.815Z,98786.09
2018-04-30T12:46:37.612Z,98780.97
2018-04-30T12:49:08.349Z,98776.70
2018-04-30T12:51:38.961Z,98779.88
2018-04-30T12:54:09.791Z,98794.78
2018-04-30T12:56:40.585Z,98780.91
2018-04-30T12:59:11.698Z,98787.25
2018-04-30T13:01:42.529Z,98788.27
2018-04-30T13:04:13.316Z,98796.45
2018-04-30T13:06:44.311Z,98795.37
2018-04-30T13:09:15.244Z,98794.66
2018-04-30T13:11:45.892Z,98793.41
2018-04-30T13:14:16.597Z,98799.98
2018-04-30T13:16:47.332Z,98804.78
2018-04-30T13:19:18.340Z,98804.56
2018-04-30T13:21:49.208Z,98799.55
2018-04-30T13:24:19.905Z,98812.22
2018-04-30T13:26:50.435Z,98807.12
2018-04-30T13:29:21.201Z,98805.86
2018-04-30T13:31:51.932Z,98809.70
2018-04-30T13:34:22.183Z,98809.57
2018-04-30T13:36:53.557Z,98803.05
2018-04-30T13:39:23.661Z,98806.89
2018-04-30T13:41:54.381Z,98806.75
2018-04-30T13:44:25.282Z,98805.94
2018-04-30T13:46:56.272Z,98807.71
2018-04-30T13:49:27.774Z,98809.33
2018-04-30T13:51:58.508Z,98811.40
2018-04-30T13:54:29.321Z,98812.53
2018-04-30T13:56:59.932Z,98816.91
2018-04-30T13:59:31.528Z,98818.76
2018-04-30T14:02:02.253Z,98815.19
2018-04-30T14:04:33.222Z,98816.22
2018-04-30T14:07:04.309Z,98819.86
2018-04-30T14:09:35.312Z,98815.44
2018-04-30T14:12:06.459Z,98824.16
2018-04-30T14:14:38.255Z,98823.05
2018-04-30T14:17:08.846Z,98838.58
2018-04-30T14:19:39.639Z,98839.31
2018-04-30T14:22:10.362Z,98840.30
2018-04-30T14:24:41.527Z,98847.41
2018-04-30T14:27:12.238Z,98863.00
2018-04-30T14:29:43.268Z,98858.22
2018-04-30T14:32:14.267Z,98872.84
2018-04-30T14:34:45.510Z,98898.31
2018-04-30T14:37:16.234Z,98898.80
2018-04-30T14:39:47.300Z,98898.47
2018-04-30T14:42:18.099Z,98885.78
2018-04-30T14:44:49.345Z,98884.81
2018-04-30T14:47:20.282Z,98901.19
2018-04-30T14:49:51.441Z,98897.72
2018-04-30T14:52:22.209Z,98903.19
2018-04-30T14:54:53.294Z,98915.86
2018-04-30T14:57:24.427Z,98918.19
2018-04-30T14:59:55.289Z,98932.38
2018-04-30T15:02:26.268Z,98932.17
2018-04-30T15:04:57.233Z,98952.38
2018-04-30T15:07:28.273Z,98955.64
2018-04-30T15:09:58.977Z,98962.73
2018-04-30T15:12:30.535Z,98975.23
2018-04-30T15:15:01.326Z,98986.20
2018-04-30T15:17:32.249Z,99008.70
2018-04-30T15:20:03.282Z,99007.57
2018-04-30T15:22:34.181Z,99001.44
2018-04-30T15:25:05.091Z,98999.27
2018-04-30T15:27:35.758Z,98998.55
2018-04-30T15:30:06.613Z,98989.33
2018-04-30T15:32:37.320Z,98987.70
2018-04-30T15:35:08.240Z,98994.31
2018-04-30T15:37:39.238Z,99000.55
2018-04-30T15:40:10.039Z,98996.89
2018-04-30T15:42:40.694Z,99000.29
2018-04-30T15:45:11.420Z,98991.10
2018-04-30T15:47:42.329Z,99011.13
2018-04-30T15:50:12.263Z,99031.75
2018-04-30T15:52:42.832Z,99052.06
2018-04-30T15:55:13.779Z,99055.98
2018-04-30T15:57:44.747Z,99063.37
2018-04-30T16:00:16.501Z,99053.08
2018-04-30T16:02:47.202Z,99034.94
2018-04-30T16:05:18.172Z,99050.36
2018-04-30T16:07:48.823Z,99071.23
2018-04-30T16:10:19.545Z,99087.91
2018-04-30T16:12:50.283Z,99078.55
2018-04-30T16:15:21.251Z,99092.23
2018-04-30T16:17:52.119Z,99087.00
2018-04-30T16:20:23.281Z,99090.47
2018-04-30T16:22:54.208Z,99080.41
2018-04-30T16:25:25.236Z,99084.09
2018-04-30T16:27:56.171Z,99079.41
2018-04-30T16:30:27.221Z,99076.59
2018-04-30T16:32:58.767Z,99077.98
2018-04-30T16:35:29.522Z,99075.86
2018-04-30T16:37:59.483Z,99083.45
2018-04-30T16:40:30.264Z,99084.25
2018-04-30T16:43:00.815Z,99087.67
2018-04-30T16:45:31.926Z,99094.84
2018-04-30T16:48:03.018Z,99093.25
2018-04-30T16:50:33.751Z,99091.61
2018-04-30T16:53:04.476Z,99095.84
2018-04-30T16:55:35.294Z,99096.75
2018-04-30T16:58:06.154Z,99098.77
2018-04-30T17:00:37.299Z,99105.94
2018-04-30T17:03:08.181Z,99101.09
2018-04-30T17:05:39.288Z,99113.92
2018-04-30T17:08:10.262Z,99118.37
2018-04-30T17:10:41.532Z,99125.27
2018-04-30T17:13:12.322Z,99126.20
2018-04-30T17:15:43.218Z,99134.70
2018-04-30T17:18:14.214Z,99133.73
2018-04-30T17:20:44.897Z,99129.37
2018-04-30T17:23:15.534Z,99128.95
2018-04-30T17:25:46.346Z,99131.83
2018-04-30T17:28:17.263Z,99138.87
2018-04-30T17:30:48.678Z,99143.90
2018-04-30T17:33:19.401Z,99145.11
2018-04-30T17:35:50.348Z,99143.20
2018-04-30T17:38:21.263Z,99145.15
2018-04-30T17:40:53.111Z,99144.13
2018-04-30T17:43:24.063Z,99153.06
2018-04-30T17:45:55.135Z,99161.64
2018-04-30T17:48:25.771Z,99165.16
2018-04-30T17:50:56.918Z,99169.02
2018-04-30T17:53:27.538Z,99179.78
2018-04-30T17:55:58.363Z,99187.47
2018-04-30T17:58:29.120Z,99191.72
2018-04-30T18:01:00.298Z,99191.60
2018-04-30T18:03:31.198Z,99193.09
2018-04-30T18:06:02.306Z,99186.89
2018-04-30T18:08:33.162Z,99192.29
2018-04-30T18:11:04.569Z,99195.52
2018-04-30T18:13:35.364Z,99201.66
2018-04-30T18:16:06.259Z,99212.52
2018-04-30T18:18:37.234Z,99222.52
2018-04-30T18:21:08.242Z,99222.58
2018-04-30T18:23:39.245Z,99214.03
2018-04-30T18:26:10.430Z,99214.20
2018-04-30T18:28:41.125Z,99208.95
2018-04-30T18:31:12.795Z,99215.62
2018-04-30T18:33:43.513Z,99212.45
2018-04-30T18:36:14.350Z,99221.90
2018-04-30T18:38:45.193Z,99229.92
2018-04-30T18:41:16.315Z,99238.07
2018-04-30T18:43:47.207Z,99240.35
2018-04-30T18:46:18.747Z,99249.38
2018-04-30T18:48:49.515Z,99253.78
2018-04-30T18:51:20.355Z,99252.30
2018-04-30T18:53:51.298Z,99253.65
2018-04-30T18:56:22.230Z,99249.37
2018-04-30T18:58:53.290Z,99253.28
2018-04-30T19:01:24.275Z,99257.88
2018-04-30T19:03:55.220Z,99266.63
2018-04-30T19:06:26.396Z,99268.20
2018-04-30T19:08:57.317Z,99268.98
2018-04-30T19:11:27.944Z,99267.35
2018-04-30T19:13:58.709Z,99271.09
2018-04-30T19:16:29.517Z,99272.11
2018-04-30T19:19:00.258Z,99269.09
2018-04-30T19:21:31.321Z,99269.59
2018-04-30T19:24:02.036Z,99264.05
2018-04-30T19:26:33.574Z,99268.52
2018-04-30T19:29:03.602Z,99268.45
2018-04-30T19:31:35.200Z,99276.87
2018-04-30T19:34:06.717Z,99279.64
2018-04-30T19:36:35.774Z,99279.45
2018-04-30T19:39:06.048Z,99273.98
2018-04-30T19:41:36.626Z,99295.00
2018-04-30T19:44:07.390Z,99294.27
2018-04-30T19:46:38.718Z,99292.10
2018-04-30T19:49:09.448Z,99301.95
2018-04-30T19:51:39.606Z,99300.77
2018-04-30T19:54:10.358Z,99306.06
2018-04-30T19:56:41.312Z,99316.30
2018-04-30T19:59:12.166Z,99315.14
2018-04-30T20:01:43.212Z,99309.47
2018-04-30T20:04:13.829Z,99323.43
2018-04-30T20:06:44.640Z,99327.98
2018-04-30T20:09:15.400Z,99336.11
2018-04-30T20:11:46.396Z,99336.42
2018-04-30T20:14:17.177Z,99343.47
2018-04-30T20:16:48.457Z,99334.00
2018-04-30T20:19:19.162Z,99359.05
2018-04-30T20:21:50.193Z,99360.73
2018-04-30T20:24:21.217Z,99364.27
2018-04-30T20:26:52.239Z,99362.50
2018-04-30T20:29:23.213Z,99372.05
2018-04-30T20:31:54.908Z,99387.29
2018-04-30T20:34:25.386Z,99388.80
2018-04-30T20:36:56.549Z,99393.48
2018-04-30T20:39:27.118Z,99393.31
2018-04-30T20:41:58.284Z,99391.39
2018-04-30T20:44:29.238Z,99396.52
2018-04-30T20:47:00.646Z,99398.76
2018-04-30T20:49:30.593Z,99411.00
2018-04-30T20:52:01.634Z,99412.64
2018-04-30T20:54:32.382Z,99407.52
2018-04-30T20:57:03.347Z,99400.94
2018-04-30T20:59:34.242Z,99398.95
2018-04-30T21:02:04.991Z,99398.56
2018-04-30T21:04:36.564Z,99409.65
2018-04-30T21:07:07.326Z,99418.38
2018-04-30T21:09:38.163Z,99425.59
2018-04-30T21:12:08.979Z,99430.95
2018-04-30T21:14:40.471Z,99438.20
2018-04-30T21:17:10.678Z,99436.57
2018-04-30T21:19:41.386Z,99432.40
2018-04-30T21:22:12.221Z,99438.52
2018-04-30T21:24:43.284Z,99434.30
2018-04-30T21:27:13.904Z,99438.36
2018-04-30T21:29:44.540Z,99437.87
2018-04-30T21:32:15.323Z,99433.05
2018-04-30T21:34:46.113Z,99428.66
2018-04-30T21:37:17.199Z,99432.66
2018-04-30T21:39:48.126Z,99432.81
2018-04-30T21:42:19.246Z,99432.95
2018-04-30T21:44:50.113Z,99434.63
2018-04-30T21:47:21.477Z,99428.27
2018-04-30T21:49:52.238Z,99421.22
2018-04-30T21:52:23.600Z,99430.34
2018-04-30T21:54:54.282Z,99425.36
2018-04-30T21:57:24.885Z,99439.23
2018-04-30T21:59:55.517Z,99437.01
2018-04-30T22:02:26.267Z,99429.60
2018-04-30T22:04:57.156Z,99430.48
2018-04-30T22:07:28.183Z,99429.59
2018-04-30T22:09:59.117Z,99437.13
2018-04-30T22:12:30.210Z,99443.34
2018-04-30T22:15:01.230Z,99448.14
2018-04-30T22:17:32.551Z,99460.73
2018-04-30T22:20:03.227Z,99464.95
2018-04-30T22:22:33.866Z,99470.88
2018-04-30T22:25:04.249Z,99476.02
2018-04-30T22:27:35.178Z,99483.33
2018-04-30T22:30:06.439Z,99484.52
2018-04-30T22:32:37.275Z,99493.36
2018-04-30T22:35:08.136Z,99497.45
2018-04-30T22:37:39.234Z,99502.31
2018-04-30T22:40:10.242Z,99503.72
2018-04-30T22:42:41.175Z,99500.75
2018-04-30T22:45:11.789Z,99488.55
2018-04-30T22:47:42.516Z,99488.33
2018-04-30T22:50:13.232Z,99487.81
2018-04-30T22:52:44.261Z,99480.91
2018-04-30T22:55:15.135Z,99478.22
2018-04-30T22:57:46.250Z,99473.59
2018-04-30T23:00:18.046Z,99462.03
2018-04-30T23:02:48.798Z,99452.34
2018-04-30T23:05:18.752Z,99456.17
2018-04-30T23:07:49.514Z,99464.33
2018-04-30T23:10:20.214Z,99469.58
2018-04-30T23:12:51.343Z,99468.21
2018-04-30T23:15:22.224Z,99470.47
2018-04-30T23:17:53.434Z,99475.14
2018-04-30T23:20:24.187Z,99474.00
2018-04-30T23:22:54.911Z,99465.05
2018-04-30T23:25:25.419Z,99464.44
2018-04-30T23:27:56.219Z,99463.83
2018-04-30T23:30:27.253Z,99466.82
2018-04-30T23:32:58.235Z,99465.59
2018-04-30T23:35:29.186Z,99458.22
2018-04-30T23:38:00.051Z,99457.61
2018-04-30T23:40:30.693Z,99448.97
2018-04-30T23:43:01.461Z,99437.04
2018-04-30T23:45:32.172Z,99441.59
2018-04-30T23:48:03.286Z,99443.55
2018-04-30T23:50:34.156Z,99449.94
2018-04-30T23:53:05.249Z,99451.38
2018-04-30T23:55:36.260Z,99446.53
2018-04-30T23:58:07.530Z,99459.00
